Matunuck, Rhode Island
Current Conditions -  °F | °C
As of 10:53 PM on Thursday 27 Nov 2014 (Local Time) from KWST Reporting Station
Light Rain Light Rain  
Wind Chill: 26°   Ceiling: 3900
Heat Index: 33°   Visibility: 10mi
Dew Point: 29°   Wind: 8mph
Humidity: 85%   Direction: 340°NNW
Pressure: 30.01"   Gusts: NA
Location:  41.4261°N, 71.5353°W
Report Text: KWST 280353Z AUTO 34007KT 10SM -RA OVC039 01/M02 A3001 RMK AO2 RAB47SNB07E27 SLP163 P0000 T00061017
Loading
Personal Weather Stations






























Interactive Weather Map New forecast layout! Learn more

10-Day Weather Forecast

Advertisements
Track Severe Weather on mobile